createdAt,value
2022-08-09T00:01:20.986Z,100728.53
2022-08-09T00:04:24.983Z,100725.13
2022-08-09T00:07:21.852Z,100732.47
2022-08-09T00:10:21.044Z,100732.78
2022-08-09T00:13:16.722Z,100735.06
2022-08-09T00:16:07.636Z,100734.56
2022-08-09T00:19:03.030Z,100754.91
2022-08-09T00:21:59.677Z,100735.31
2022-08-09T00:24:49.818Z,100733.22
2022-08-09T00:27:43.150Z,100726.06
2022-08-09T00:30:33.143Z,100745.34
2022-08-09T00:33:48.838Z,100732.03
2022-08-09T00:36:33.827Z,100733.63
2022-08-09T00:40:12.258Z,100735.97
2022-08-09T00:44:15.931Z,100730.50
2022-08-09T00:45:50.399Z,100729.47
2022-08-09T00:48:47.558Z,100740.84
2022-08-09T00:51:54.502Z,100741.97
2022-08-09T00:54:45.614Z,100748.28
2022-08-09T00:57:35.814Z,100748.84
2022-08-09T01:00:26.877Z,100748.84
2022-08-09T01:03:59.267Z,100752.19
2022-08-09T01:07:14.053Z,100745.78
2022-08-09T01:10:07.357Z,100745.78
2022-08-09T01:13:09.242Z,100737.06
2022-08-09T01:16:03.345Z,100742.91
2022-08-09T01:19:04.227Z,100754.69
2022-08-09T01:22:12.429Z,100742.69
2022-08-09T01:25:22.269Z,100748.72
2022-08-09T01:28:12.977Z,100743.22
2022-08-09T01:31:06.987Z,100733.09
2022-08-09T01:34:01.621Z,100735.78
2022-08-09T01:36:54.857Z,100732.63
2022-08-09T01:39:47.270Z,100742.03
2022-08-09T01:42:38.965Z,100734.22
2022-08-09T01:45:31.004Z,100736.81
2022-08-09T01:48:24.184Z,100736.06
2022-08-09T01:51:22.759Z,100736.28
2022-08-09T01:54:13.811Z,100727.16
2022-08-09T01:57:27.332Z,100730.50
2022-08-09T02:00:35.845Z,100727.16
2022-08-09T02:03:26.234Z,100739.91
2022-08-09T02:06:19.501Z,100736.81
2022-08-09T02:09:15.858Z,100737.56
2022-08-09T02:12:09.766Z,100730.56
2022-08-09T02:15:06.331Z,100737.34
2022-08-09T02:18:10.007Z,100737.25
2022-08-09T02:21:06.261Z,100739.94
2022-08-09T02:23:58.448Z,100742.16
2022-08-09T02:26:58.612Z,100749.13
2022-08-09T02:29:52.223Z,100753.44
2022-08-09T02:32:47.204Z,100756.97
2022-08-09T02:36:01.986Z,100766.19
2022-08-09T02:38:57.362Z,100762.88
2022-08-09T02:41:52.167Z,100764.50
2022-08-09T02:44:46.894Z,100770.28
2022-08-09T02:47:58.102Z,100768.13
2022-08-09T02:50:56.399Z,100775.31
2022-08-09T02:54:01.124Z,100778.38
2022-08-09T02:56:56.903Z,100775.91
2022-08-09T03:00:20.469Z,100778.97
2022-08-09T03:03:02.198Z,100778.69
2022-08-09T03:05:55.604Z,100786.50
2022-08-09T03:08:49.296Z,100771.72
2022-08-09T03:12:05.856Z,100781.88
2022-08-09T03:14:51.916Z,100780.38
2022-08-09T03:17:42.520Z,100777.19
2022-08-09T03:20:33.445Z,100777.72
2022-08-09T03:23:24.629Z,100774.00
2022-08-09T03:26:19.048Z,100769.53
2022-08-09T03:29:13.519Z,100772.22
2022-08-09T03:32:13.519Z,100766.56
2022-08-09T03:35:14.767Z,100762.34
2022-08-09T03:38:28.552Z,100759.88
2022-08-09T03:41:19.564Z,100756.91
2022-08-09T03:44:20.823Z,100759.31
2022-08-09T03:47:17.782Z,100746.00
2022-08-09T03:50:10.539Z,100750.97
2022-08-09T03:53:05.203Z,100752.38
2022-08-09T03:55:56.122Z,100744.25
2022-08-09T03:58:47.061Z,100738.88
2022-08-09T04:01:42.051Z,100744.84
2022-08-09T04:04:38.886Z,100730.06
2022-08-09T04:07:33.920Z,100731.91
2022-08-09T04:10:40.637Z,100730.31
2022-08-09T04:14:37.762Z,100722.13
2022-08-09T04:16:40.751Z,100715.06
2022-08-09T04:19:50.803Z,100726.34
2022-08-09T04:22:44.305Z,100719.72
2022-08-09T04:25:36.025Z,100728.19
2022-08-09T04:28:34.240Z,100726.13
2022-08-09T04:31:37.376Z,100722.63
2022-08-09T04:34:34.965Z,100711.13
2022-08-09T04:37:45.102Z,100694.19
2022-08-09T04:40:56.447Z,100705.25
2022-08-09T04:44:05.620Z,100707.03
2022-08-09T04:46:59.121Z,100684.03
2022-08-09T04:49:55.081Z,100690.91
2022-08-09T04:52:45.735Z,100696.94
2022-08-09T04:55:39.049Z,100692.13
2022-08-09T04:58:46.346Z,100684.19
2022-08-09T05:01:40.410Z,100671.06
2022-08-09T05:04:30.818Z,100677.28
2022-08-09T05:07:21.578Z,100675.44
2022-08-09T05:10:16.924Z,100681.84
2022-08-09T05:13:07.349Z,100673.56
2022-08-09T05:16:04.618Z,100665.44
2022-08-09T05:18:59.328Z,100668.63
2022-08-09T05:21:55.832Z,100660.53
2022-08-09T05:24:47.669Z,100648.78
2022-08-09T05:27:45.412Z,100642.16
2022-08-09T05:30:37.543Z,100650.91
2022-08-09T05:33:33.181Z,100628.94
2022-08-09T05:36:28.834Z,100624.41
2022-08-09T05:39:21.763Z,100619.44
2022-08-09T05:42:21.852Z,100613.66
2022-08-09T05:45:18.376Z,100605.59
2022-08-09T05:48:09.743Z,100602.97
2022-08-09T05:51:29.783Z,100604.97
2022-08-09T05:54:11.318Z,100598.00
2022-08-09T05:57:02.181Z,100597.03
2022-08-09T05:59:55.927Z,100601.03
2022-08-09T06:02:46.978Z,100605.41
2022-08-09T06:05:57.423Z,100595.53
2022-08-09T06:08:52.574Z,100588.50
2022-08-09T06:11:57.604Z,100582.69
2022-08-09T06:14:48.131Z,100577.53
2022-08-09T06:17:39.929Z,100562.72
2022-08-09T06:20:31.018Z,100562.94
2022-08-09T06:23:24.289Z,100563.78
2022-08-09T06:26:34.649Z,100559.84
2022-08-09T06:29:26.854Z,100554.22
2022-08-09T06:32:53.600Z,100554.41
2022-08-09T06:35:55.652Z,100556.50
2022-08-09T06:38:37.713Z,100557.72
2022-08-09T06:42:08.170Z,100551.47
2022-08-09T06:44:41.378Z,100549.78
2022-08-09T06:47:39.513Z,100558.53
2022-08-09T06:50:32.268Z,100552.88
2022-08-09T06:53:22.945Z,100541.84
2022-08-09T06:56:14.412Z,100544.13
2022-08-09T07:00:51.879Z,100550.16
2022-08-09T07:02:15.122Z,100543.66
2022-08-09T07:05:06.934Z,100543.84
2022-08-09T07:08:00.670Z,100553.63
2022-08-09T07:10:52.617Z,100548.00
2022-08-09T07:13:45.130Z,100546.13
2022-08-09T07:16:57.705Z,100544.66
2022-08-09T07:19:50.817Z,100543.38
2022-08-09T07:22:52.434Z,100541.31
2022-08-09T07:25:44.245Z,100542.56
2022-08-09T07:28:34.672Z,100530.09
2022-08-09T07:31:26.350Z,100527.63
2022-08-09T07:34:21.195Z,100534.47
2022-08-09T07:37:16.655Z,100526.75
2022-08-09T07:40:08.057Z,100522.59
2022-08-09T07:43:02.227Z,100525.91
2022-08-09T07:45:52.440Z,100526.75
2022-08-09T07:48:42.444Z,100518.59
2022-08-09T07:52:04.683Z,100522.97
2022-08-09T07:54:45.058Z,100518.03
2022-08-09T07:57:47.277Z,100511.75
2022-08-09T08:00:55.513Z,100506.78
2022-08-09T08:03:48.170Z,100500.13
2022-08-09T08:06:55.524Z,100501.34
2022-08-09T08:09:53.338Z,100497.66
2022-08-09T08:12:46.561Z,100498.25
2022-08-09T08:15:37.766Z,100505.13
2022-08-09T08:18:29.318Z,100494.31
2022-08-09T08:21:21.797Z,100495.59
2022-08-09T08:24:16.795Z,100499.31
2022-08-09T08:27:17.207Z,100497.66
2022-08-09T08:30:11.306Z,100491.44
2022-08-09T08:33:01.456Z,100493.50
2022-08-09T08:36:00.769Z,100489.31
2022-08-09T08:38:57.406Z,100493.91
2022-08-09T08:41:51.548Z,100486.63
2022-08-09T08:44:43.639Z,100491.81
2022-08-09T08:47:38.550Z,100487.88
2022-08-09T08:50:33.230Z,100495.75
2022-08-09T08:53:25.054Z,100493.06
2022-08-09T08:56:28.004Z,100493.25
2022-08-09T08:59:20.462Z,100501.56
2022-08-09T09:02:14.768Z,100491.81
2022-08-09T09:05:57.891Z,100503.88
2022-08-09T09:08:42.142Z,100505.94
2022-08-09T09:11:33.924Z,100515.91
2022-08-09T09:14:29.437Z,100526.53
2022-08-09T09:17:21.350Z,100521.94
2022-08-09T09:20:15.488Z,100535.00
2022-08-09T09:23:06.239Z,100536.63
2022-08-09T09:26:04.631Z,100546.19
2022-08-09T09:29:10.963Z,100546.38
2022-08-09T09:32:15.711Z,100558.56
2022-08-09T09:35:09.642Z,100558.97
2022-08-09T09:38:01.130Z,100567.91
2022-08-09T09:40:51.296Z,100567.06
2022-08-09T09:44:10.666Z,100570.16
2022-08-09T09:46:52.756Z,100581.38
2022-08-09T09:50:06.967Z,100578.03
2022-08-09T09:52:57.788Z,100572.63
2022-08-09T09:56:04.579Z,100570.97
2022-08-09T09:58:55.162Z,100578.44
2022-08-09T10:01:47.313Z,100576.13
2022-08-09T10:04:38.017Z,100585.91
2022-08-09T10:07:30.261Z,100587.97
2022-08-09T10:10:32.123Z,100595.88
2022-08-09T10:13:24.753Z,100597.47
2022-08-09T10:16:56.722Z,100599.56
2022-08-09T10:19:46.918Z,100614.28
2022-08-09T10:22:45.799Z,100622.22
2022-08-09T10:26:07.712Z,100621.00
2022-08-09T10:28:48.675Z,100624.31
2022-08-09T10:35:07.751Z,100619.34
2022-08-09T10:38:05.202Z,100619.72
2022-08-09T10:41:17.852Z,100625.34
2022-08-09T10:44:08.459Z,100634.69
2022-08-09T10:48:16.750Z,100632.81
2022-08-09T10:51:29.642Z,100633.41
2022-08-09T10:54:31.503Z,100656.94
2022-08-09T10:57:24.980Z,100655.38
2022-08-09T11:01:11.438Z,100653.41
2022-08-09T11:04:20.080Z,100651.34
2022-08-09T11:07:21.314Z,100653.41
2022-08-09T11:10:11.810Z,100665.88
2022-08-09T11:13:49.787Z,100676.09
2022-08-09T11:16:40.836Z,100684.59
2022-08-09T11:20:22.337Z,100703.28
2022-08-09T11:23:14.993Z,100702.00
2022-08-09T11:26:07.321Z,100706.59
2022-08-09T11:28:57.304Z,100701.56
2022-08-09T11:31:52.615Z,100708.63
2022-08-09T11:34:51.528Z,100715.72
2022-08-09T11:37:43.673Z,100707.41
2022-08-09T11:40:39.650Z,100711.03
2022-08-09T11:43:32.111Z,100714.84
2022-08-09T11:46:33.289Z,100714.41
2022-08-09T11:50:56.198Z,100724.84
2022-08-09T11:53:58.813Z,100725.56
2022-08-09T11:56:42.730Z,100723.16
2022-08-09T11:59:38.995Z,100728.56
2022-08-09T12:02:37.203Z,100740.38
2022-08-09T12:05:37.930Z,100743.09
2022-08-09T12:08:30.686Z,100750.69
2022-08-09T12:11:27.035Z,100755.25
2022-08-09T12:14:48.830Z,100760.03
2022-08-09T12:17:41.679Z,100770.44
2022-08-09T12:20:36.059Z,100766.25
2022-08-09T12:23:56.501Z,100770.81
2022-08-09T12:28:58.117Z,100769.16
2022-08-09T12:30:37.048Z,100769.16
2022-08-09T12:33:13.195Z,100776.22
2022-08-09T12:36:27.767Z,100768.41
2022-08-09T12:39:17.209Z,100781.63
2022-08-09T12:42:09.410Z,100782.63
2022-08-09T12:44:59.545Z,100787.00
2022-08-09T12:47:51.968Z,100791.13
2022-08-09T12:50:42.855Z,100796.03
2022-08-09T12:53:41.262Z,100792.91
2022-08-09T12:56:54.135Z,100797.56
2022-08-09T13:00:03.492Z,100797.66
2022-08-09T13:02:56.981Z,100795.59
2022-08-09T13:06:15.996Z,100803.69
2022-08-09T13:09:13.483Z,100805.53
2022-08-09T13:12:06.938Z,100805.47
2022-08-09T13:15:07.334Z,100812.91
2022-08-09T13:18:09.566Z,100813.84
2022-08-09T13:22:37.826Z,100817.19
2022-08-09T13:24:53.081Z,100819.25
2022-08-09T13:27:48.241Z,100821.56
2022-08-09T13:30:51.116Z,100817.03
2022-08-09T13:33:58.423Z,100824.53
2022-08-09T13:36:49.446Z,100827.44
2022-08-09T13:41:55.144Z,100825.75
2022-08-09T13:42:51.876Z,100827.25
2022-08-09T13:46:44.681Z,100825.41
2022-08-09T13:48:51.801Z,100825.41
2022-08-09T13:51:41.741Z,100824.38
2022-08-09T13:54:59.111Z,100822.03
2022-08-09T13:57:53.086Z,100831.16
2022-08-09T14:00:52.585Z,100820.75
2022-08-09T14:04:02.245Z,100825.13
2022-08-09T14:07:00.404Z,100826.50
2022-08-09T14:09:54.428Z,100820.75
2022-08-09T14:12:45.258Z,100821.94
2022-08-09T14:16:09.786Z,100819.06
2022-08-09T14:18:49.258Z,100827.53
2022-08-09T14:21:40.744Z,100818.78
2022-08-09T14:24:32.379Z,100815.25
2022-08-09T14:27:23.945Z,100827.25
2022-08-09T14:30:36.877Z,100824.56
2022-08-09T14:33:26.841Z,100821.03
2022-08-09T14:36:20.605Z,100832.38
2022-08-09T14:39:11.872Z,100827.63
2022-08-09T14:42:01.788Z,100839.66
2022-08-09T14:44:59.321Z,100826.31
2022-08-09T14:47:57.349Z,100832.09
2022-08-09T14:50:50.036Z,100825.41
2022-08-09T14:53:46.785Z,100821.88
2022-08-09T14:56:53.632Z,100822.00
2022-08-09T14:59:48.793Z,100813.91
2022-08-09T15:02:40.188Z,100824.91
2022-08-09T15:05:31.295Z,100813.28
2022-08-09T15:08:23.870Z,100819.03
2022-08-09T15:11:14.432Z,100808.25
2022-08-09T15:14:13.251Z,100808.44
2022-08-09T15:17:04.961Z,100807.78
2022-08-09T15:19:59.381Z,100802.94
2022-08-09T15:22:59.850Z,100801.91
2022-08-09T15:25:53.400Z,100804.34
2022-08-09T15:28:45.438Z,100798.56
2022-08-09T15:31:45.014Z,100794.03
2022-08-09T15:34:35.698Z,100789.81
2022-08-09T15:37:57.026Z,100784.44
2022-08-09T15:40:47.911Z,100774.00
2022-08-09T15:43:40.619Z,100776.06
2022-08-09T15:46:34.962Z,100770.66
2022-08-09T15:49:24.962Z,100773.94
2022-08-09T15:52:18.066Z,100774.09
2022-08-09T15:55:10.286Z,100780.50
2022-08-09T15:58:01.782Z,100778.19
2022-08-09T16:00:52.070Z,100777.38
2022-08-09T16:03:41.951Z,100773.00
2022-08-09T16:06:35.291Z,100777.72
2022-08-09T16:09:51.048Z,100775.41
2022-08-09T16:12:37.646Z,100775.84
2022-08-09T16:16:12.231Z,100778.56
2022-08-09T16:18:50.097Z,100774.75
2022-08-09T16:21:48.568Z,100773.53
2022-08-09T16:24:42.319Z,100781.63
2022-08-09T16:27:32.791Z,100770.84
2022-08-09T16:30:29.796Z,100769.53
2022-08-09T16:33:26.475Z,100769.53
2022-08-09T16:36:18.609Z,100773.06
2022-08-09T16:39:09.135Z,100776.97
2022-08-09T16:42:03.582Z,100771.94
2022-08-09T16:44:54.701Z,100771.94
2022-08-09T16:48:40.750Z,100770.91
2022-08-09T16:50:59.537Z,100768.41
2022-08-09T16:54:25.930Z,100766.53
2022-08-09T16:57:06.079Z,100769.44
2022-08-09T17:00:01.058Z,100763.03
2022-08-09T17:02:52.048Z,100764.06
2022-08-09T17:06:07.858Z,100756.16
2022-08-09T17:09:02.907Z,100749.47
2022-08-09T17:12:02.665Z,100748.06
2022-08-09T17:14:57.263Z,100743.72
2022-08-09T17:17:51.546Z,100745.75
2022-08-09T17:20:53.190Z,100738.81
2022-08-09T17:24:27.972Z,100739.00
2022-08-09T17:26:53.364Z,100731.59
2022-08-09T17:29:45.435Z,100724.53
2022-08-09T17:32:38.358Z,100731.94
2022-08-09T17:35:28.442Z,100732.31
2022-08-09T17:38:33.922Z,100725.69
2022-08-09T17:41:38.677Z,100726.59
2022-08-09T17:44:38.641Z,100723.38
2022-08-09T17:47:49.661Z,100711.66
2022-08-09T17:50:48.576Z,100713.19
2022-08-09T17:53:52.197Z,100709.66
2022-08-09T17:56:44.078Z,100704.47
2022-08-09T17:59:38.450Z,100703.63
2022-08-09T18:02:33.514Z,100707.16
2022-08-09T18:05:23.886Z,100708.16
2022-08-09T18:08:28.742Z,100709.84
2022-08-09T18:11:18.387Z,100708.53
2022-08-09T18:14:14.912Z,100702.13
2022-08-09T18:17:06.036Z,100701.47
2022-08-09T18:20:54.793Z,100700.81
2022-08-09T18:23:08.053Z,100709.25
2022-08-09T18:26:17.921Z,100700.16
2022-08-09T18:30:34.963Z,100702.53
2022-08-09T18:32:19.113Z,100696.81
2022-08-09T18:35:10.391Z,100690.97
2022-08-09T18:37:59.651Z,100684.72
2022-08-09T18:40:51.049Z,100684.25
2022-08-09T18:43:53.121Z,100679.69
2022-08-09T18:46:46.933Z,100660.19
2022-08-09T18:49:47.934Z,100663.91
2022-08-09T18:52:43.957Z,100666.78
2022-08-09T18:55:55.977Z,100667.63
2022-08-09T18:58:45.591Z,100663.91
2022-08-09T19:01:43.580Z,100649.06
2022-08-09T19:04:35.789Z,100660.63
2022-08-09T19:07:25.333Z,100670.75
2022-08-09T19:10:17.720Z,100669.06
2022-08-09T19:13:23.130Z,100669.53
2022-08-09T19:16:21.216Z,100673.59
2022-08-09T19:19:25.047Z,100681.66
2022-08-09T19:22:16.859Z,100681.38
2022-08-09T19:25:41.896Z,100676.00
2022-08-09T19:28:18.434Z,100667.25
2022-08-09T19:31:08.345Z,100674.31
2022-08-09T19:33:58.251Z,100670.81
2022-08-09T19:36:51.537Z,100668.47
2022-08-09T19:40:03.891Z,100669.66
2022-08-09T19:42:51.467Z,100670.50
2022-08-09T19:45:42.479Z,100667.81
2022-08-09T19:49:01.801Z,100669.66
2022-08-09T19:51:42.164Z,100668.81
2022-08-09T19:54:45.218Z,100671.03
2022-08-09T19:57:35.345Z,100659.25
2022-08-09T20:00:25.142Z,100670.00
2022-08-09T20:04:07.616Z,100670.38
2022-08-09T20:06:31.372Z,100671.22
2022-08-09T20:09:45.009Z,100678.63
2022-08-09T20:12:37.407Z,100672.41
2022-08-09T20:16:33.583Z,100676.09
2022-08-09T20:18:52.018Z,100666.56
2022-08-09T20:21:59.789Z,100664.88
2022-08-09T20:24:53.265Z,100666.06
2022-08-09T20:27:44.569Z,100659.84
2022-08-09T20:30:34.637Z,100659.34
2022-08-09T20:33:25.323Z,100660.00
2022-08-09T20:36:15.639Z,100658.69
2022-08-09T20:39:29.094Z,100657.69
2022-08-09T20:42:20.548Z,100656.00
2022-08-09T20:45:59.837Z,100644.41
2022-08-09T20:48:31.056Z,100638.06
2022-08-09T20:51:25.787Z,100644.94
2022-08-09T20:54:17.091Z,100639.56
2022-08-09T20:57:08.082Z,100638.91
2022-08-09T21:00:30.805Z,100641.59
2022-08-09T21:03:07.798Z,100642.25
2022-08-09T21:05:59.881Z,100646.81
2022-08-09T21:08:51.137Z,100647.13
2022-08-09T21:14:50.862Z,100644.59
2022-08-09T21:18:11.855Z,100643.28
2022-08-09T21:20:55.965Z,100644.97
2022-08-09T21:23:51.611Z,100643.94
2022-08-09T21:26:41.357Z,100647.00
2022-08-09T21:29:49.407Z,100655.91
2022-08-09T21:32:40.288Z,100659.41
2022-08-09T21:35:31.859Z,100659.78
2022-08-09T21:38:30.990Z,100654.41
2022-08-09T21:41:21.255Z,100653.03
2022-08-09T21:44:34.694Z,100657.28
2022-08-09T21:47:25.451Z,100645.69
2022-08-09T21:50:22.234Z,100655.25
2022-08-09T21:53:23.928Z,100656.47
2022-08-09T21:56:33.799Z,100658.84
2022-08-09T21:59:42.743Z,100660.09
2022-08-09T22:02:36.140Z,100667.34
2022-08-09T22:05:35.973Z,100665.00
2022-08-09T22:08:29.941Z,100668.69
2022-08-09T22:12:06.259Z,100675.75
2022-08-09T22:14:29.263Z,100673.72
2022-08-09T22:17:21.781Z,100670.03
2022-08-09T22:20:11.889Z,100678.25
2022-08-09T22:23:13.386Z,100672.06
2022-08-09T22:26:05.757Z,100670.03
2022-08-09T22:29:07.146Z,100672.06
2022-08-09T22:31:58.111Z,100675.41
2022-08-09T22:34:59.074Z,100674.56
2022-08-09T22:38:06.570Z,100673.72
2022-08-09T22:40:57.882Z,100680.78
2022-08-09T22:44:01.922Z,100681.78
2022-08-09T22:48:15.375Z,100695.25
2022-08-09T22:50:03.818Z,100699.25
2022-08-09T22:52:54.858Z,100700.25
2022-08-09T22:56:31.005Z,100711.69
2022-08-09T22:58:59.396Z,100713.38
2022-08-09T23:01:49.903Z,100718.75
2022-08-09T23:04:42.590Z,100729.81
2022-08-09T23:08:21.709Z,100724.09
2022-08-09T23:10:59.963Z,100732.81
2022-08-09T23:13:55.113Z,100729.47
2022-08-09T23:16:44.899Z,100730.13
2022-08-09T23:20:06.974Z,100732.13
2022-08-09T23:22:44.887Z,100731.47
2022-08-09T23:25:37.328Z,100730.09
2022-08-09T23:28:28.125Z,100738.81
2022-08-09T23:31:17.776Z,100748.38
2022-08-09T23:34:07.641Z,100756.44
2022-08-09T23:36:57.581Z,100755.44
2022-08-09T23:39:48.221Z,100760.63
2022-08-09T23:42:37.939Z,100762.81
2022-08-09T23:45:36.354Z,100762.75
2022-08-09T23:48:28.267Z,100762.22
2022-08-09T23:51:18.885Z,100768.56
2022-08-09T23:54:09.290Z,100768.22
2022-08-09T23:56:59.971Z,100772.22
